Time,TemperatureF,DewpointF,PressureIn,WindDirection,WindDirectionDegrees,WindSpeedMPH,WindSpeedGustMPH,Humidity,HourlyPrecipIn,Conditions,Clouds,dailyrainin,SolarRadiationWatts/m^2,SoftwareType,DateUTC
2013-03-13 00:01:00,46.0,19.0,-100.00,SE,146,10.0,16.0,33,0.00,,,0.00,0.000000,,2013-03-13 06:01:00,
2013-03-13 00:33:00,46.0,19.0,-100.00,SE,146,10.0,16.0,33,0.00,,,0.00,0.000000,,2013-03-13 06:33:00,
2013-03-13 00:42:00,46.0,19.0,-100.00,SE,146,10.0,16.0,33,0.00,,,0.00,0.000000,,2013-03-13 06:42:00,
2013-03-13 00:52:00,46.0,19.0,-100.00,SE,146,10.0,16.0,33,0.00,,,0.00,0.000000,,2013-03-13 06:52:00,
2013-03-13 01:01:00,45.0,20.0,-100.00,SE,142,7.0,15.0,36,0.00,,,0.00,0.000000,,2013-03-13 07:01:00,
2013-03-13 01:33:00,45.0,20.0,-100.00,SE,142,7.0,15.0,36,0.00,,,0.00,0.000000,,2013-03-13 07:33:00,
2013-03-13 01:43:00,45.0,20.0,-100.00,SE,142,7.0,15.0,36,0.00,,,0.00,0.000000,,2013-03-13 07:43:00,
2013-03-13 01:53:00,45.0,20.0,-100.00,SE,142,7.0,15.0,36,0.00,,,0.00,0.000000,,2013-03-13 07:53:00,
2013-03-13 02:01:00,44.0,18.0,-100.00,SSE,150,7.0,13.0,35,0.00,,,0.00,0.000000,,2013-03-13 08:01:00,
2013-03-13 02:33:00,44.0,18.0,-100.00,SSE,150,7.0,13.0,35,0.00,,,0.00,0.000000,,2013-03-13 08:33:00,
2013-03-13 02:43:00,44.0,18.0,-100.00,SSE,150,7.0,13.0,35,0.00,,,0.00,0.000000,,2013-03-13 08:43:00,
2013-03-13 02:54:00,44.0,18.0,-100.00,SSE,150,7.0,13.0,35,0.00,,,0.00,0.000000,,2013-03-13 08:54:00,
2013-03-13 03:01:00,42.0,18.0,-100.00,ENE,68,2.0,6.0,38,0.00,,,0.00,0.000000,,2013-03-13 09:01:00,
2013-03-13 03:32:00,42.0,18.0,-100.00,ENE,68,2.0,6.0,38,0.00,,,0.00,0.000000,,2013-03-13 09:32:00,
2013-03-13 03:42:00,42.0,18.0,-100.00,ENE,68,2.0,6.0,38,0.00,,,0.00,0.000000,,2013-03-13 09:42:00,
2013-03-13 03:52:00,42.0,18.0,-100.00,ENE,68,2.0,6.0,38,0.00,,,0.00,0.000000,,2013-03-13 09:52:00,
2013-03-13 04:01:00,41.0,20.0,-100.00,NE,39,1.0,5.0,43,0.00,,,0.00,0.000000,,2013-03-13 10:01:00,
2013-03-13 04:32:00,41.0,20.0,-100.00,NE,39,1.0,5.0,43,0.00,,,0.00,0.000000,,2013-03-13 10:32:00,
2013-03-13 04:42:00,41.0,20.0,-100.00,NE,39,1.0,5.0,43,0.00,,,0.00,0.000000,,2013-03-13 10:42:00,
2013-03-13 04:52:00,41.0,20.0,-100.00,NE,39,1.0,5.0,43,0.00,,,0.00,0.000000,,2013-03-13 10:52:00,
2013-03-13 05:01:00,43.0,17.0,-100.00,ESE,104,3.0,8.0,34,0.00,,,0.00,0.000000,,2013-03-13 11:01:00,
2013-03-13 05:32:00,43.0,17.0,-100.00,ESE,104,3.0,8.0,34,0.00,,,0.00,0.000000,,2013-03-13 11:32:00,
2013-03-13 05:42:00,43.0,17.0,-100.00,ESE,104,3.0,8.0,34,0.00,,,0.00,0.000000,,2013-03-13 11:42:00,
2013-03-13 05:52:00,43.0,17.0,-100.00,ESE,104,3.0,8.0,34,0.00,,,0.00,0.000000,,2013-03-13 11:52:00,
2013-03-13 06:01:00,42.0,15.0,-100.00,SW,226,2.0,7.0,33,0.00,,,0.00,0.000000,,2013-03-13 12:01:00,
2013-03-13 06:32:00,42.0,15.0,-100.00,SW,226,2.0,7.0,33,0.00,,,0.00,0.000000,,2013-03-13 12:32:00,
2013-03-13 06:42:00,42.0,15.0,-100.00,SW,226,2.0,7.0,33,0.00,,,0.00,0.000000,,2013-03-13 12:42:00,
2013-03-13 06:53:00,42.0,15.0,-100.00,SW,226,2.0,7.0,33,0.00,,,0.00,0.000000,,2013-03-13 12:53:00,
2013-03-13 07:01:00,40.0,14.0,-100.00,NNE,18,2.0,6.0,34,0.00,,,0.00,0.000000,,2013-03-13 13:01:00,
2013-03-13 07:22:00,40.0,14.0,-100.00,NNE,18,2.0,6.0,34,0.00,,,0.00,0.000000,,2013-03-13 13:22:00,
2013-03-13 07:33:00,40.0,14.0,-100.00,NNE,18,2.0,6.0,34,0.00,,,0.00,0.000000,,2013-03-13 13:33:00,
2013-03-13 07:43:00,40.0,14.0,-100.00,NNE,18,2.0,6.0,34,0.00,,,0.00,0.000000,,2013-03-13 13:43:00,
2013-03-13 07:52:00,40.0,14.0,-100.00,NNE,18,2.0,6.0,34,0.00,,,0.00,0.000000,,2013-03-13 13:52:00,
2013-03-13 08:01:00,41.0,15.0,-100.00,NE,51,3.0,6.0,34,0.00,,,0.00,10.000000,,2013-03-13 14:01:00,
2013-03-13 08:22:00,41.0,15.0,-100.00,NE,51,3.0,6.0,34,0.00,,,0.00,10.000000,,2013-03-13 14:22:00,
2013-03-13 08:34:00,41.0,15.0,-100.00,NE,51,3.0,6.0,34,0.00,,,0.00,10.000000,,2013-03-13 14:34:00,
2013-03-13 08:42:00,41.0,15.0,-100.00,NE,51,3.0,6.0,34,0.00,,,0.00,10.000000,,2013-03-13 14:42:00,
2013-03-13 08:53:00,41.0,15.0,-100.00,NE,51,3.0,6.0,34,0.00,,,0.00,10.000000,,2013-03-13 14:53:00,
2013-03-13 09:01:00,55.0,20.0,-100.00,ESE,122,4.0,6.0,25,0.00,,,0.00,234.000000,,2013-03-13 15:01:00,
2013-03-13 09:22:00,55.0,20.0,-100.00,ESE,122,4.0,6.0,25,0.00,,,0.00,234.000000,,2013-03-13 15:22:00,
2013-03-13 09:32:00,55.0,20.0,-100.00,ESE,122,4.0,6.0,25,0.00,,,0.00,234.000000,,2013-03-13 15:32:00,
2013-03-13 09:43:00,55.0,20.0,-100.00,ESE,122,4.0,6.0,25,0.00,,,0.00,234.000000,,2013-03-13 15:43:00,
2013-03-13 09:52:00,55.0,20.0,-100.00,ESE,122,4.0,6.0,25,0.00,,,0.00,234.000000,,2013-03-13 15:52:00,
2013-03-13 10:01:00,57.0,19.0,-100.00,SE,138,7.0,10.0,22,0.00,,,0.00,479.000000,,2013-03-13 16:01:00,
2013-03-13 10:33:00,57.0,19.0,-100.00,SE,138,7.0,10.0,22,0.00,,,0.00,479.000000,,2013-03-13 16:33:00,
2013-03-13 10:42:00,57.0,19.0,-100.00,SE,138,7.0,10.0,22,0.00,,,0.00,479.000000,,2013-03-13 16:42:00,
2013-03-13 10:52:00,57.0,19.0,-100.00,SE,138,7.0,10.0,22,0.00,,,0.00,479.000000,,2013-03-13 16:52:00,
2013-03-13 11:01:00,60.0,19.0,-100.00,SSE,147,6.0,11.0,20,0.00,,,0.00,681.000000,,2013-03-13 17:01:00,
2013-03-13 11:33:00,60.0,19.0,-100.00,SSE,147,6.0,11.0,20,0.00,,,0.00,681.000000,,2013-03-13 17:33:00,
2013-03-13 11:42:00,60.0,19.0,-100.00,SSE,147,6.0,11.0,20,0.00,,,0.00,681.000000,,2013-03-13 17:42:00,
2013-03-13 11:53:00,60.0,19.0,-100.00,SSE,147,6.0,11.0,20,0.00,,,0.00,681.000000,,2013-03-13 17:53:00,
2013-03-13 12:01:00,63.0,20.0,-100.00,SSE,153,7.0,12.0,19,0.00,,,0.00,833.000000,,2013-03-13 18:01:00,
2013-03-13 12:33:00,63.0,20.0,-100.00,SSE,153,7.0,12.0,19,0.00,,,0.00,833.000000,,2013-03-13 18:33:00,
2013-03-13 12:43:00,63.0,20.0,-100.00,SSE,153,7.0,12.0,19,0.00,,,0.00,833.000000,,2013-03-13 18:43:00,
2013-03-13 12:52:00,63.0,20.0,-100.00,SSE,153,7.0,12.0,19,0.00,,,0.00,833.000000,,2013-03-13 18:52:00,
2013-03-13 13:01:00,65.0,19.0,-100.00,East,92,5.0,13.0,17,0.00,,,0.00,920.000000,,2013-03-13 19:01:00,
2013-03-13 13:32:00,65.0,19.0,-100.00,East,92,5.0,13.0,17,0.00,,,0.00,920.000000,,2013-03-13 19:32:00,
2013-03-13 13:43:00,65.0,19.0,-100.00,East,92,5.0,13.0,17,0.00,,,0.00,920.000000,,2013-03-13 19:43:00,
2013-03-13 13:53:00,65.0,19.0,-100.00,East,92,5.0,13.0,17,0.00,,,0.00,920.000000,,2013-03-13 19:53:00,
2013-03-13 14:01:00,66.0,20.0,-100.00,North,2,5.0,13.0,17,0.00,,,0.00,927.000000,,2013-03-13 20:01:00,
2013-03-13 14:32:00,66.0,20.0,-100.00,North,2,5.0,13.0,17,0.00,,,0.00,927.000000,,2013-03-13 20:32:00,
2013-03-13 14:42:00,66.0,20.0,-100.00,North,2,5.0,13.0,17,0.00,,,0.00,927.000000,,2013-03-13 20:42:00,
2013-03-13 14:52:00,66.0,20.0,-100.00,North,2,5.0,13.0,17,0.00,,,0.00,927.000000,,2013-03-13 20:52:00,
2013-03-13 15:01:00,67.0,18.0,-100.00,NE,43,7.0,14.0,15,0.00,,,0.00,862.000000,,2013-03-13 21:01:00,
2013-03-13 15:22:00,67.0,18.0,-100.00,NE,43,7.0,14.0,15,0.00,,,0.00,862.000000,,2013-03-13 21:22:00,
2013-03-13 15:34:00,67.0,18.0,-100.00,NE,43,7.0,14.0,15,0.00,,,0.00,862.000000,,2013-03-13 21:34:00,
2013-03-13 15:42:00,67.0,18.0,-100.00,NE,43,7.0,14.0,15,0.00,,,0.00,862.000000,,2013-03-13 21:42:00,
2013-03-13 15:52:00,67.0,18.0,-100.00,NE,43,7.0,14.0,15,0.00,,,0.00,862.000000,,2013-03-13 21:52:00,
2013-03-13 16:01:00,69.0,18.0,-100.00,SSE,161,7.0,12.0,14,0.00,,,0.00,740.000000,,2013-03-13 22:01:00,
2013-03-13 16:32:00,69.0,18.0,-100.00,SSE,161,7.0,12.0,14,0.00,,,0.00,740.000000,,2013-03-13 22:32:00,
2013-03-13 16:42:00,69.0,18.0,-100.00,SSE,161,7.0,12.0,14,0.00,,,0.00,740.000000,,2013-03-13 22:42:00,
2013-03-13 16:52:00,69.0,18.0,-100.00,SSE,161,7.0,12.0,14,0.00,,,0.00,740.000000,,2013-03-13 22:52:00,
2013-03-13 17:01:00,68.0,12.0,-100.00,SW,228,7.0,14.0,11,0.00,,,0.00,565.000000,,2013-03-13 23:01:00,
2013-03-13 17:32:00,68.0,12.0,-100.00,SW,228,7.0,14.0,11,0.00,,,0.00,565.000000,,2013-03-13 23:32:00,
2013-03-13 17:43:00,68.0,12.0,-100.00,SW,228,7.0,14.0,11,0.00,,,0.00,565.000000,,2013-03-13 23:43:00,
2013-03-13 17:52:00,68.0,12.0,-100.00,SW,228,7.0,14.0,11,0.00,,,0.00,565.000000,,2013-03-13 23:52:00,
2013-03-13 18:01:00,66.0,10.0,-100.00,South,171,7.0,12.0,11,0.00,,,0.00,351.000000,,2013-03-14 00:01:00,
2013-03-13 18:33:00,66.0,10.0,-100.00,South,171,7.0,12.0,11,0.00,,,0.00,351.000000,,2013-03-14 00:33:00,
2013-03-13 18:42:00,66.0,10.0,-100.00,South,171,7.0,12.0,11,0.00,,,0.00,351.000000,,2013-03-14 00:42:00,
2013-03-13 18:52:00,66.0,10.0,-100.00,South,171,7.0,12.0,11,0.00,,,0.00,351.000000,,2013-03-14 00:52:00,
2013-03-13 19:01:00,60.0,9.0,-100.00,South,173,4.0,11.0,13,0.00,,,0.00,120.000000,,2013-03-14 01:01:00,
2013-03-13 19:23:00,60.0,9.0,-100.00,South,173,4.0,11.0,13,0.00,,,0.00,120.000000,,2013-03-14 01:23:00,
2013-03-13 19:32:00,60.0,9.0,-100.00,South,173,4.0,11.0,13,0.00,,,0.00,120.000000,,2013-03-14 01:32:00,
2013-03-13 19:42:00,60.0,9.0,-100.00,South,173,4.0,11.0,13,0.00,,,0.00,120.000000,,2013-03-14 01:42:00,
2013-03-13 19:53:00,60.0,9.0,-100.00,South,173,4.0,11.0,13,0.00,,,0.00,120.000000,,2013-03-14 01:53:00,
2013-03-13 20:01:00,54.0,9.0,-100.00,East,91,3.0,6.0,16,0.00,,,0.00,3.000000,,2013-03-14 02:01:00,
2013-03-13 20:33:00,54.0,9.0,-100.00,East,91,3.0,6.0,16,0.00,,,0.00,3.000000,,2013-03-14 02:33:00,
2013-03-13 20:42:00,54.0,9.0,-100.00,East,91,3.0,6.0,16,0.00,,,0.00,3.000000,,2013-03-14 02:42:00,
2013-03-13 20:52:00,54.0,9.0,-100.00,East,91,3.0,6.0,16,0.00,,,0.00,3.000000,,2013-03-14 02:52:00,
2013-03-13 21:33:00,53.0,9.0,-100.00,NE,36,4.0,5.0,17,0.00,,,0.00,0.000000,,2013-03-14 03:33:00,
2013-03-13 21:42:00,53.0,9.0,-100.00,NE,36,4.0,5.0,17,0.00,,,0.00,0.000000,,2013-03-14 03:42:00,
2013-03-13 21:53:00,53.0,9.0,-100.00,NE,36,4.0,5.0,17,0.00,,,0.00,0.000000,,2013-03-14 03:53:00,
2013-03-13 22:01:00,52.0,7.0,-100.00,NNE,32,5.0,7.0,16,0.00,,,0.00,0.000000,,2013-03-14 04:01:00,
2013-03-13 22:32:00,52.0,7.0,-100.00,NNE,32,5.0,7.0,16,0.00,,,0.00,0.000000,,2013-03-14 04:32:00,
2013-03-13 22:42:00,52.0,7.0,-100.00,NNE,32,5.0,7.0,16,0.00,,,0.00,0.000000,,2013-03-14 04:42:00,
2013-03-13 22:52:00,52.0,7.0,-100.00,NNE,32,5.0,7.0,16,0.00,,,0.00,0.000000,,2013-03-14 04:52:00,
2013-03-13 23:01:00,52.0,10.0,-100.00,NNE,20,4.0,7.0,18,0.00,,,0.00,0.000000,,2013-03-14 05:01:00,
2013-03-13 23:33:00,52.0,10.0,-100.00,NNE,20,4.0,7.0,18,0.00,,,0.00,0.000000,,2013-03-14 05:33:00,
2013-03-13 23:42:00,52.0,10.0,-100.00,NNE,20,4.0,7.0,18,0.00,,,0.00,0.000000,,2013-03-14 05:42:00,
2013-03-13 23:53:00,52.0,10.0,-100.00,NNE,20,4.0,7.0,18,0.00,,,0.00,0.000000,,2013-03-14 05:53:00,